Time;durP1;ratioP1;P1;durP2;ratioP2;P2;SDS_P1;SDS_P2;PMS_P1;PMS_P2;Temp;Humidity;BMP_temperature;BMP_pressure;BME280_temperature;BME280_humidity;BME280_pressure;Samples;Min_cycle;Max_cycle;Signal;HPM_P1;HPM_P2
2021/03/01 00:00:15;;;;;;;6.15;4.67;;;;;;;0.37;79.37;100825.88;1821251;77;21095;-78
2021/03/01 00:02:42;;;;;;;6.80;4.80;;;;;;;0.37;79.42;100834.98;1809622;77;22069;-78
2021/03/01 00:05:13;;;;;;;7.28;5.50;;;;;;;0.35;79.42;100826.84;1815144;77;21247;-78
2021/03/01 00:07:43;;;;;;;6.85;4.87;;;;;;;0.34;79.46;100825.14;1822754;77;21137;-76
2021/03/01 00:10:12;;;;;;;7.90;4.85;;;;;;;0.34;79.50;100828.59;1833964;77;21153;-75
2021/03/01 00:12:42;;;;;;;8.10;4.92;;;;;;;0.35;79.51;100834.18;1830873;77;21101;-76
2021/03/01 00:15:13;;;;;;;7.40;4.45;;;;;;;0.34;79.53;100827.29;1843152;77;22454;-75
2021/03/01 00:17:41;;;;;;;7.50;4.70;;;;;;;0.34;79.54;100831.19;1791066;79;21150;-75
2021/03/01 00:20:12;;;;;;;6.95;4.87;;;;;;;0.32;79.58;100832.14;1840900;77;21065;-75
2021/03/01 00:22:44;;;;;;;6.95;5.08;;;;;;;0.33;79.62;100838.58;1819464;77;21062;-75
2021/03/01 00:25:13;;;;;;;6.57;4.90;;;;;;;0.34;79.62;100844.63;1764016;80;21136;-75
2021/03/01 00:27:41;;;;;;;5.20;4.25;;;;;;;0.33;79.62;100834.68;1744242;81;22718;-75
2021/03/01 00:30:11;;;;;;;6.87;4.67;;;;;;;0.32;79.67;100842.53;1758261;80;21079;-75
2021/03/01 00:32:39;;;;;;;5.30;4.15;;;;;;;0.33;79.69;100844.23;1848514;77;21046;-75
2021/03/01 00:35:08;;;;;;;6.70;5.05;;;;;;;0.33;79.72;100839.88;1848077;77;21128;-75
2021/03/01 00:37:37;;;;;;;7.45;5.60;;;;;;;0.33;79.75;100848.13;1827688;77;21470;-75
2021/03/01 00:40:07;;;;;;;7.70;5.20;;;;;;;0.34;79.76;100842.03;1828171;77;21887;-75
2021/03/01 00:42:36;;;;;;;8.80;5.08;;;;;;;0.36;79.77;100846.27;1834310;77;21061;-75
2021/03/01 00:45:06;;;;;;;6.83;4.55;;;;;;;0.37;79.77;100844.08;1816903;77;21094;-75
2021/03/01 00:47:34;;;;;;;6.28;4.83;;;;;;;0.39;79.77;100842.76;1823576;77;21128;-78
2021/03/01 00:50:03;;;;;;;7.10;5.70;;;;;;;0.38;79.78;100839.28;1803419;77;21038;-78
2021/03/01 00:52:31;;;;;;;8.18;5.92;;;;;;;0.37;79.82;100840.17;1846578;77;22939;-78
2021/03/01 00:54:59;;;;;;;7.55;6.30;;;;;;;0.36;79.84;100846.72;1834342;77;21073;-76
2021/03/01 00:57:27;;;;;;;9.73;5.92;;;;;;;0.36;79.87;100848.02;1819650;77;21177;-76
2021/03/01 00:59:54;;;;;;;8.30;5.75;;;;;;;0.40;79.92;100853.55;1821108;77;21392;-76
2021/03/01 01:02:22;;;;;;;8.40;5.62;;;;;;;0.42;79.91;100851.75;1821742;77;21141;-76
2021/03/01 01:05:04;;;;;;;7.35;5.62;;;;;;;0.49;79.92;100853.27;1880854;76;29051;-78
2021/03/01 01:07:32;;;;;;;7.67;5.40;;;;;;;0.47;79.91;100862.84;1790933;78;21208;-78
2021/03/01 01:09:59;;;;;;;6.90;5.05;;;;;;;0.48;79.89;100862.82;1805394;78;22482;-77
2021/03/01 01:12:27;;;;;;;6.92;5.03;;;;;;;0.48;79.90;100861.52;1799860;78;21105;-77
2021/03/01 01:14:55;;;;;;;6.20;4.90;;;;;;;0.48;79.87;100860.64;1822068;78;21078;-77
2021/03/01 01:17:23;;;;;;;8.38;5.12;;;;;;;0.47;79.87;100863.69;1815833;78;21062;-77
2021/03/01 01:19:51;;;;;;;7.08;4.95;;;;;;;0.46;79.88;100861.99;1756423;80;21046;-78
2021/03/01 01:22:18;;;;;;;7.55;5.28;;;;;;;0.47;79.89;100869.34;1774279;78;22046;-78
2021/03/01 01:24:45;;;;;;;5.58;4.70;;;;;;;0.46;79.89;100871.09;1780673;79;21130;-77
2021/03/01 01:27:13;;;;;;;7.22;5.00;;;;;;;0.47;79.91;100875.38;1789588;80;21045;-78
2021/03/01 01:29:40;;;;;;;7.67;5.20;;;;;;;0.46;79.90;100873.69;1789911;80;21187;-77
2021/03/01 01:32:08;;;;;;;6.75;4.97;;;;;;;0.46;79.90;100874.98;1773882;80;21114;-77
2021/03/01 01:34:36;;;;;;;5.87;4.62;;;;;;;0.44;79.91;100869.44;1798590;78;22501;-76
2021/03/01 01:37:04;;;;;;;6.55;5.00;;;;;;;0.42;79.95;100869.48;1759455;80;21375;-77
2021/03/01 01:39:31;;;;;;;6.20;4.97;;;;;;;0.42;79.95;100874.69;1787132;80;21058;-77
2021/03/01 01:41:59;;;;;;;7.35;5.30;;;;;;;0.41;79.99;100876.89;1786973;80;21134;-77
2021/03/01 01:44:26;;;;;;;6.33;4.87;;;;;;;0.40;80.03;100882.13;1803392;78;21094;-77
2021/03/01 01:46:54;;;;;;;7.90;5.22;;;;;;;0.40;80.08;100884.28;1781389;80;22493;-78
2021/03/01 01:49:22;;;;;;;7.85;5.50;;;;;;;0.39;80.10;100884.33;1782844;80;21078;-78
2021/03/01 01:51:49;;;;;;;6.55;5.22;;;;;;;0.41;80.12;100891.18;1799605;79;21074;-76
2021/03/01 01:54:17;;;;;;;6.33;5.05;;;;;;;0.43;80.13;100894.58;1784662;80;21169;-77
2021/03/01 01:56:45;;;;;;;6.65;5.33;;;;;;;0.46;80.15;100897.08;1786798;80;21161;-77
2021/03/01 01:59:12;;;;;;;8.23;5.83;;;;;;;0.47;80.16;100898.77;1776210;79;21910;-76
2021/03/01 02:01:40;;;;;;;8.75;5.05;;;;;;;0.47;80.13;100903.97;1751913;80;21100;-77
2021/03/01 02:04:19;;;;;;;6.75;5.05;;;;;;;0.49;80.12;100902.66;1800683;78;21146;-77
2021/03/01 02:07:10;;;;;;;7.28;5.47;;;;;;;0.48;80.09;100904.82;1777747;80;21555;-78
2021/03/01 02:10:05;;;;;;;7.28;5.30;;;;;;;0.49;80.07;100913.05;1779247;80;21490;-77
2021/03/01 02:12:58;;;;;;;8.28;5.55;;;;;;;0.49;80.05;100920.84;1783127;80;21149;-75
2021/03/01 02:16:00;;;;;;;6.95;5.40;;;;;;;0.47;80.06;100926.52;1804305;79;21110;-78
2021/03/01 02:18:27;;;;;;;7.72;5.78;;;;;;;0.45;80.07;100938.25;1785981;80;21110;-77
2021/03/01 02:20:55;;;;;;;7.62;5.87;;;;;;;0.45;80.08;100941.30;1787655;80;21149;-77
2021/03/01 02:23:22;;;;;;;9.23;6.08;;;;;;;0.44;80.09;100943.50;1778031;80;21081;-77
2021/03/01 02:26:01;;;;;;;7.10;5.80;;;;;;;0.42;80.12;100944.00;1802938;79;22061;-77
2021/03/01 02:28:33;;;;;;;8.70;6.17;;;;;;;0.40;80.15;100938.85;1766677;80;21123;-77
2021/03/01 02:31:02;;;;;;;8.68;6.40;;;;;;;0.40;80.21;100941.45;1763723;81;21043;-77
2021/03/01 02:33:39;;;;;;;9.60;6.20;;;;;;;0.43;80.24;100945.70;1769529;80;21044;-77
2021/03/01 02:36:21;;;;;;;9.65;6.37;;;;;;;0.42;80.26;100948.75;1773368;80;21166;-77
2021/03/01 02:38:49;;;;;;;9.45;6.78;;;;;;;0.43;80.29;100958.70;1763692;80;23389;-77
2021/03/01 02:41:17;;;;;;;8.93;6.55;;;;;;;0.43;80.29;100956.09;1782785;79;21120;-77
2021/03/01 02:43:45;;;;;;;8.95;6.60;;;;;;;0.43;80.30;100959.55;1783782;80;21154;-77
2021/03/01 02:46:15;;;;;;;11.12;6.70;;;;;;;0.42;80.27;100963.04;1781859;80;21182;-77
2021/03/01 02:48:43;;;;;;;8.25;6.22;;;;;;;0.43;80.29;100964.74;1767004;80;21124;-76
2021/03/01 02:51:11;;;;;;;11.38;6.87;;;;;;;0.42;80.34;100961.74;1753578;80;22978;-76
2021/03/01 02:53:39;;;;;;;9.15;7.17;;;;;;;0.42;80.37;100966.94;1781796;80;21126;-77
2021/03/01 02:56:07;;;;;;;9.28;6.62;;;;;;;0.40;80.41;100967.44;1751419;80;21112;-77
2021/03/01 02:58:37;;;;;;;9.73;7.28;;;;;;;0.41;80.42;100967.84;1779964;80;21182;-76
2021/03/01 03:01:05;;;;;;;11.20;7.50;;;;;;;0.41;80.47;100974.33;1783764;80;21163;-77
2021/03/01 03:03:33;;;;;;;10.50;7.53;;;;;;;0.41;80.49;100974.78;1724005;80;23088;-75
2021/03/01 03:06:01;;;;;;;11.10;8.35;;;;;;;0.40;80.52;100980.43;1756407;80;21067;-77
2021/03/01 03:08:31;;;;;;;10.45;7.70;;;;;;;0.41;80.49;100978.23;1778959;80;21150;-77
2021/03/01 03:10:58;;;;;;;10.00;7.62;;;;;;;0.41;80.49;100979.53;1787768;80;21126;-78
2021/03/01 03:13:26;;;;;;;15.35;9.03;;;;;;;0.40;80.51;100979.58;1767341;80;21106;-77
2021/03/01 03:15:56;;;;;;;14.30;9.10;;;;;;;0.38;80.52;100983.49;1785736;79;22062;-76
2021/03/01 03:18:24;;;;;;;12.47;9.10;;;;;;;0.36;80.57;100986.59;1739537;80;21088;-78
2021/03/01 03:20:52;;;;;;;14.10;10.25;;;;;;;0.38;80.61;100986.54;1760855;80;21052;-77
2021/03/01 03:23:20;;;;;;;15.08;10.10;;;;;;;0.38;80.61;100991.29;1787797;80;21507;-77
2021/03/01 03:25:48;;;;;;;13.32;9.70;;;;;;;0.39;80.63;100994.77;1770198;80;21123;-76
2021/03/01 03:28:15;;;;;;;14.55;10.50;;;;;;;0.39;80.61;101002.12;1756070;80;22983;-77
2021/03/01 03:30:42;;;;;;;13.10;10.53;;;;;;;0.40;80.64;101003.82;1754300;81;21128;-78
2021/03/01 03:33:10;;;;;;;16.90;12.40;;;;;;;0.39;80.65;101011.22;1754057;81;21091;-77
2021/03/01 03:35:38;;;;;;;17.37;11.73;;;;;;;0.39;80.67;101009.06;1780357;80;21114;-77
2021/03/01 03:38:24;;;;;;;17.92;12.85;;;;;;;0.39;80.68;101018.16;1776612;80;21140;-77
2021/03/01 03:40:56;;;;;;;19.57;13.28;;;;;;;0.38;80.69;101024.22;1771378;80;21940;-78
2021/03/01 03:43:24;;;;;;;19.17;13.70;;;;;;;0.38;80.74;101030.27;1766517;80;21115;-77
2021/03/01 03:45:53;;;;;;;17.80;12.82;;;;;;;0.38;80.75;101030.27;1718697;81;21084;-77
2021/03/01 03:48:24;;;;;;;23.20;15.23;;;;;;;0.37;80.76;101034.21;1755937;80;21119;-77
2021/03/01 03:50:56;;;;;;;18.45;12.45;;;;;;;0.35;80.80;101026.91;1769039;80;21078;-77
2021/03/01 03:53:26;;;;;;;19.65;12.37;;;;;;;0.34;80.86;101028.66;1737837;80;22170;-77
2021/03/01 03:55:56;;;;;;;18.37;12.10;;;;;;;0.33;80.91;101031.30;1754289;81;21087;-77
2021/03/01 03:58:28;;;;;;;17.77;11.68;;;;;;;0.30;80.95;101030.95;1738705;80;21535;-77
2021/03/01 04:00:57;;;;;;;20.75;11.20;;;;;;;0.30;80.98;101036.59;1780546;80;21581;-77
2021/03/01 04:03:25;;;;;;;23.80;13.72;;;;;;;0.27;81.06;101042.70;1761461;80;21201;-77
2021/03/01 04:05:54;;;;;;;23.07;13.80;;;;;;;0.26;81.10;101052.23;1772220;80;21824;-77
2021/03/01 04:08:21;;;;;;;19.62;13.20;;;;;;;0.25;81.17;101051.84;1781593;79;21096;-77
2021/03/01 04:10:51;;;;;;;24.12;14.43;;;;;;;0.24;81.20;101053.18;1780923;80;21525;-77
2021/03/01 04:13:20;;;;;;;25.10;15.13;;;;;;;0.24;81.25;101048.84;1782258;80;21135;-77
2021/03/01 04:15:48;;;;;;;22.82;14.13;;;;;;;0.23;81.30;101050.18;1783466;80;21589;-77
2021/03/01 04:18:33;;;;;;;25.32;15.38;;;;;;;0.24;81.33;101055.33;1767838;80;22567;-77
2021/03/01 04:21:04;;;;;;;22.10;14.87;;;;;;;0.23;81.36;101055.38;1776553;80;21072;-77
2021/03/01 04:23:32;;;;;;;23.60;13.90;;;;;;;0.22;81.39;101057.13;1783005;80;21077;-77
2021/03/01 04:26:00;;;;;;;23.10;14.53;;;;;;;0.20;81.45;101062.81;1783530;80;21072;-77
2021/03/01 04:28:28;;;;;;;21.93;15.63;;;;;;;0.20;81.48;101067.16;1781975;80;21138;-77
2021/03/01 04:31:01;;;;;;;24.20;16.02;;;;;;;0.18;81.50;101065.87;1780489;80;22074;-77
2021/03/01 04:33:29;;;;;;;19.70;14.15;;;;;;;0.20;81.58;101071.91;1782277;80;22338;-77
2021/03/01 04:35:57;;;;;;;29.70;19.73;;;;;;;0.21;81.58;101074.05;1751568;80;21114;-77
2021/03/01 04:38:24;;;;;;;42.45;27.58;;;;;;;0.22;81.63;101079.66;1746610;80;21056;-77
2021/03/01 04:40:52;;;;;;;32.28;21.62;;;;;;;0.21;81.65;101079.25;1781631;80;21174;-77
2021/03/01 04:43:21;;;;;;;23.52;16.90;;;;;;;0.22;81.68;101084.40;1781837;80;22977;-77
2021/03/01 04:45:52;;;;;;;19.87;14.05;;;;;;;0.23;81.69;101093.05;1783288;79;21430;-77
2021/03/01 04:48:21;;;;;;;21.02;13.95;;;;;;;0.24;81.68;101090.85;1741360;80;21067;-77
2021/03/01 04:50:52;;;;;;;23.27;15.05;;;;;;;0.26;81.74;101099.45;1776555;80;21163;-76
2021/03/01 04:53:20;;;;;;;17.98;12.30;;;;;;;0.24;81.74;101101.24;1782236;80;21127;-76
2021/03/01 04:55:47;;;;;;;22.52;14.87;;;;;;;0.22;81.78;101092.20;1782232;80;23371;-77
2021/03/01 04:58:18;;;;;;;21.50;14.35;;;;;;;0.23;81.78;101099.54;1782011;80;21197;-76
2021/03/01 05:00:46;;;;;;;28.25;17.90;;;;;;;0.23;81.82;101106.89;1778966;80;21146;-76
2021/03/01 05:03:14;;;;;;;23.67;14.65;;;;;;;0.23;81.84;101109.94;1749685;80;21178;-76
2021/03/01 05:05:41;;;;;;;23.15;15.35;;;;;;;0.24;81.86;101116.38;1738474;81;21070;-79
2021/03/01 05:08:14;;;;;;;22.62;15.35;;;;;;;0.26;81.88;101124.13;1766461;80;22505;-75
2021/03/01 05:10:42;;;;;;;24.27;14.93;;;;;;;0.27;81.86;101127.98;1757191;80;21202;-83
2021/03/01 05:13:09;;;;;;;23.07;15.15;;;;;;;0.29;81.90;101129.28;1758303;81;21178;-87
2021/03/01 05:15:37;;;;;;;21.20;14.43;;;;;;;0.30;81.92;101135.33;1732880;81;21135;-85
2021/03/01 05:18:06;;;;;;;22.27;13.50;;;;;;;0.30;81.93;101134.87;1754603;81;21153;-86
2021/03/01 05:20:34;;;;;;;25.05;15.18;;;;;;;0.31;81.93;101131.39;1759864;81;22078;-86
2021/03/01 05:23:01;;;;;;;23.30;15.70;;;;;;;0.32;81.96;101134.83;1767198;80;21091;-83
2021/03/01 05:25:29;;;;;;;22.70;14.58;;;;;;;0.34;81.96;101138.23;1766831;81;21115;-84
2021/03/01 05:27:57;;;;;;;25.20;15.58;;;;;;;0.36;81.95;101141.64;1766827;81;21154;-86
2021/03/01 05:30:25;;;;;;;24.45;15.68;;;;;;;0.37;81.95;101145.95;1766609;81;21047;-74
2021/03/01 05:32:53;;;;;;;22.82;14.98;;;;;;;0.37;81.99;101162.39;1754461;81;22796;-74
2021/03/01 05:35:21;;;;;;;23.65;15.10;;;;;;;0.42;82.00;101166.19;1754551;81;21186;-71
2021/03/01 05:37:49;;;;;;;24.02;15.05;;;;;;;0.45;81.99;101165.66;1756038;81;21139;-74
2021/03/01 05:40:17;;;;;;;23.62;14.95;;;;;;;0.47;81.99;101164.31;1754843;81;21162;-76
2021/03/01 05:42:45;;;;;;;25.55;14.23;;;;;;;0.49;81.95;101176.85;1760126;80;21190;-76
2021/03/01 05:45:14;;;;;;;22.30;13.62;;;;;;;0.50;81.94;101174.20;1760785;80;23033;-76
2021/03/01 05:47:41;;;;;;;22.22;13.98;;;;;;;0.52;81.94;101181.97;1728848;81;21141;-77
2021/03/01 05:50:10;;;;;;;64.53;28.20;;;;;;;0.50;81.91;101184.61;1756988;81;21073;-76
2021/03/01 05:52:43;;;;;;;28.25;15.78;;;;;;;0.51;81.91;101197.16;1764205;81;21112;-77
2021/03/01 05:55:11;;;;;;;20.62;13.18;;;;;;;0.51;81.92;101194.55;1764808;81;20895;-77
2021/03/01 05:57:39;;;;;;;25.10;14.73;;;;;;;0.53;81.90;101197.96;1758569;81;21846;-77
2021/03/01 06:00:09;;;;;;;22.55;14.18;;;;;;;0.54;81.88;101201.82;1764462;81;21558;-77
2021/03/01 06:02:37;;;;;;;21.17;13.00;;;;;;;0.55;81.87;101203.97;1781334;80;21143;-78
2021/03/01 06:05:07;;;;;;;20.55;14.03;;;;;;;0.57;81.89;101206.93;1756218;80;21148;-78
2021/03/01 06:07:35;;;;;;;19.17;12.65;;;;;;;0.60;81.84;101211.67;1795456;78;21169;-78
2021/03/01 06:10:06;;;;;;;19.05;13.10;;;;;;;0.61;81.81;101215.97;1798369;78;22130;-77
2021/03/01 06:12:33;;;;;;;21.20;13.75;;;;;;;0.60;81.81;101216.42;1749934;78;21096;-74
2021/03/01 06:15:01;;;;;;;19.42;12.43;;;;;;;0.63;81.79;101213.73;1787690;79;21134;-77
2021/03/01 06:17:29;;;;;;;18.40;12.55;;;;;;;0.66;81.81;101214.95;1731627;80;21132;-76
2021/03/01 06:19:58;;;;;;;17.50;12.45;;;;;;;0.68;81.75;101224.04;1789384;80;21122;-76
2021/03/01 06:22:43;;;;;;;19.48;12.78;;;;;;;0.68;81.75;101222.73;1788147;80;23023;-77
2021/03/01 06:25:14;;;;;;;17.70;12.10;;;;;;;0.71;81.74;101226.11;1789343;80;21490;-77
2021/03/01 06:27:50;;;;;;;17.95;12.75;;;;;;;0.74;81.70;101225.16;1789878;80;21370;-77
2021/03/01 06:30:29;;;;;;;17.60;12.07;;;;;;;0.77;81.69;101233.77;1788315;79;21098;-77
2021/03/01 06:33:06;;;;;;;17.95;11.83;;;;;;;0.78;81.64;101234.16;1764014;80;21123;-77
2021/03/01 06:35:48;;;;;;;18.92;12.30;;;;;;;0.81;81.60;101236.68;1761612;80;22081;-76
2021/03/01 06:38:34;;;;;;;14.83;11.18;;;;;;;0.83;81.58;101246.59;1780945;78;21184;-85
2021/03/01 06:41:10;;;;;;;16.80;10.90;;;;;;;0.88;81.55;101249.09;1781078;80;21056;-84
2021/03/01 06:43:40;;;;;;;16.67;11.57;;;;;;;0.91;81.48;101250.30;1787558;78;21109;-86
2021/03/01 06:46:13;;;;;;;17.50;11.65;;;;;;;0.93;81.43;101251.55;1788554;78;21228;-86
2021/03/01 06:48:41;;;;;;;16.20;10.90;;;;;;;0.96;81.40;101251.02;1789713;80;21903;-84
2021/03/01 06:51:09;;;;;;;17.32;11.35;;;;;;;1.01;81.37;101260.87;1777340;80;21542;-86
2021/03/01 06:53:37;;;;;;;15.85;10.68;;;;;;;1.03;81.29;101262.98;1775972;78;21161;-86
2021/03/01 06:56:09;;;;;;;17.02;11.35;;;;;;;1.05;81.24;101278.10;1782957;78;21530;-87
2021/03/01 06:58:44;;;;;;;12.70;10.38;;;;;;;1.08;81.16;101281.09;1786551;78;21198;-87
2021/03/01 07:01:19;;;;;;;16.30;10.35;;;;;;;1.11;81.10;101287.06;1777512;78;21905;-75
2021/03/01 07:03:49;;;;;;;13.80;10.20;;;;;;;1.11;81.01;101284.45;1804087;79;21122;-81
2021/03/01 07:06:18;;;;;;;16.40;11.40;;;;;;;1.12;80.94;101295.27;1776733;78;21137;-82
2021/03/01 07:08:49;;;;;;;15.90;10.25;;;;;;;1.13;80.86;101296.98;1801468;79;21113;-82
2021/03/01 07:11:34;;;;;;;15.13;10.93;;;;;;;1.14;80.81;101298.68;1793718;80;21081;-88
2021/03/01 07:14:10;;;;;;;14.58;10.28;;;;;;;1.19;80.75;101306.39;1786224;78;21956;-83
2021/03/01 07:16:47;;;;;;;11.97;9.00;;;;;;;1.20;80.59;101316.34;1770089;79;21121;-87
2021/03/01 07:19:29;;;;;;;14.95;10.50;;;;;;;1.19;80.51;101320.70;1794068;79;21125;-83
2021/03/01 07:22:04;;;;;;;12.68;9.15;;;;;;;1.19;80.42;101327.66;1787661;79;21103;-85
2021/03/01 07:24:32;;;;;;;;;;;;;;;1.21;80.36;101334.52;1791122;79;21048;-83
2021/03/01 07:27:02;;;;;;;14.78;10.25;;;;;;;1.20;80.24;101339.31;1791367;79;22118;-84
2021/03/01 07:29:34;;;;;;;14.65;10.00;;;;;;;1.19;80.17;101338.06;1797709;79;21146;-86
2021/03/01 07:32:06;;;;;;;13.72;10.48;;;;;;;1.21;80.09;101341.47;1798970;79;21608;-85
2021/03/01 07:34:35;;;;;;;12.43;8.53;;;;;;;1.20;80.00;101340.62;1799008;79;21093;-83
2021/03/01 07:37:04;;;;;;;14.23;10.32;;;;;;;1.20;79.94;101340.62;1794713;79;21058;-73
2021/03/01 07:39:32;;;;;;;14.47;9.95;;;;;;;1.23;79.93;101347.03;1789927;79;22167;-90
2021/03/01 07:42:00;;;;;;;12.93;9.03;;;;;;;1.26;79.84;101342.22;1792219;80;21082;-87
2021/03/01 07:44:32;;;;;;;14.38;10.00;;;;;;;1.25;79.69;101343.94;1766480;79;21124;-81
2021/03/01 07:47:02;;;;;;;11.53;8.78;;;;;;;1.24;79.62;101350.48;1774056;79;21113;-85
2021/03/01 07:49:47;;;;;;;13.48;9.80;;;;;;;1.26;79.60;101348.73;1777739;80;21097;-89
2021/03/01 07:52:26;;;;;;;12.90;9.10;;;;;;;1.29;79.59;101348.64;1812916;79;23365;-82
2021/03/01 07:55:05;;;;;;;13.70;9.70;;;;;;;1.31;79.52;101357.26;1811086;77;21062;-74
2021/03/01 07:57:35;;;;;;;13.03;9.30;;;;;;;1.35;79.45;101364.08;1780086;78;21603;-76
2021/03/01 08:00:27;;;;;;;11.55;8.95;;;;;;;1.39;79.41;101360.52;1771168;78;21042;-78
2021/03/01 08:02:54;;;;;;;12.50;8.88;;;;;;;1.41;79.34;101361.33;1765906;81;21045;-77
2021/03/01 08:05:29;;;;;;;11.75;8.55;;;;;;;1.43;79.24;101367.34;1757728;80;22085;-77
2021/03/01 08:07:58;;;;;;;13.05;10.03;;;;;;;1.42;79.10;101371.70;1783813;80;21137;-76
2021/03/01 08:10:35;;;;;;;12.45;9.40;;;;;;;1.38;78.98;101372.69;1781058;80;21157;-86
2021/03/01 08:13:05;;;;;;;12.73;9.43;;;;;;;1.39;78.96;101375.70;1762881;80;21137;-82
2021/03/01 08:15:45;;;;;;;10.40;7.78;;;;;;;1.40;78.92;101380.00;1768119;80;21042;-85
2021/03/01 08:18:13;;;;;;;10.68;8.20;;;;;;;1.42;78.83;101388.63;1785060;80;22922;-84
2021/03/01 08:20:53;;;;;;;13.58;9.38;;;;;;;1.39;78.72;101387.41;1785554;80;21089;-86
2021/03/01 08:23:30;;;;;;;13.72;9.70;;;;;;;1.36;78.65;101386.19;1785438;80;21060;-85
2021/03/01 08:25:58;;;;;;;11.53;9.00;;;;;;;1.34;78.55;101389.70;1785106;79;21143;-84
2021/03/01 08:28:35;;;;;;;11.65;8.40;;;;;;;1.35;78.51;101390.11;1800041;79;21109;-80
2021/03/01 08:31:20;;;;;;;10.63;8.35;;;;;;;1.37;78.49;101393.55;1785493;80;22943;-82
2021/03/01 08:33:48;;;;;;;10.58;7.17;;;;;;;1.40;78.39;101401.27;1771249;80;21557;-81
2021/03/01 08:36:21;;;;;;;10.25;7.95;;;;;;;1.41;78.32;101399.08;1782255;80;21138;-83
2021/03/01 08:38:54;;;;;;;10.20;7.42;;;;;;;1.43;78.24;101403.34;1752489;80;21062;-83
2021/03/01 08:41:41;;;;;;;11.22;8.10;;;;;;;1.49;78.17;101409.30;1781205;80;21070;-80
2021/03/01 08:44:21;;;;;;;11.28;8.30;;;;;;;1.49;78.03;101406.25;1783185;80;22052;-81
2021/03/01 08:46:49;;;;;;;11.25;7.33;;;;;;;1.53;77.96;101408.31;1780513;80;21118;-85
2021/03/01 08:49:25;;;;;;;9.70;7.28;;;;;;;1.53;77.78;101410.47;1779781;80;21375;-81
2021/03/01 08:51:55;;;;;;;10.85;7.22;;;;;;;1.56;77.70;101418.23;1782209;80;21078;-77
2021/03/01 08:54:28;;;;;;;12.35;7.47;;;;;;;1.61;77.61;101428.06;1782586;80;21050;-78
2021/03/01 08:57:07;;;;;;;9.83;7.10;;;;;;;1.66;77.52;101427.52;1773620;80;22066;-77
2021/03/01 08:59:35;;;;;;;9.00;6.62;;;;;;;1.70;77.42;101431.73;1779693;80;21062;-75
2021/03/01 09:02:03;;;;;;;8.73;6.40;;;;;;;1.72;77.18;101428.64;1772128;80;21104;-76
2021/03/01 09:04:31;;;;;;;8.33;6.35;;;;;;;1.73;77.04;101429.04;1772393;80;21078;-75
2021/03/01 09:07:07;;;;;;;10.32;7.05;;;;;;;1.75;76.83;101434.69;1771683;80;21114;-75
2021/03/01 09:09:48;;;;;;;9.28;7.00;;;;;;;1.77;76.79;101436.80;1780428;80;22102;-75
2021/03/01 09:12:18;;;;;;;10.88;7.58;;;;;;;;;;1779806;80;21133;-75
2021/03/01 09:14:47;;;;;;;10.15;7.10;;;;;;;1.84;76.54;101444.87;1782635;80;21073;-76
2021/03/01 09:17:14;;;;;;;8.70;7.00;;;;;;;1.85;76.35;101444.83;1783758;80;21062;-75
2021/03/01 09:19:42;;;;;;;8.48;6.83;;;;;;;1.88;76.20;101443.87;1783816;80;20931;-76
2021/03/01 09:22:09;;;;;;;11.12;7.03;;;;;;;1.90;76.09;101444.23;1783832;80;23353;-76
2021/03/01 09:24:40;;;;;;;10.28;6.80;;;;;;;1.99;76.10;101444.44;1782811;80;21604;-77
2021/03/01 09:27:09;;;;;;;9.08;6.20;;;;;;;2.05;75.88;101441.69;1780404;80;21110;-75
2021/03/01 09:29:37;;;;;;;7.10;5.28;;;;;;;2.09;75.72;101451.11;1768475;80;21126;-76
2021/03/01 09:32:06;;;;;;;7.33;5.35;;;;;;;2.14;75.53;101454.47;1775775;80;21147;-76
2021/03/01 09:34:34;;;;;;;7.58;5.87;;;;;;;2.20;75.08;101450.81;1782840;80;22501;-76
2021/03/01 09:37:05;;;;;;;8.75;5.20;;;;;;;2.30;74.93;101454.42;1771198;80;21228;-74
2021/03/01 09:39:37;;;;;;;9.85;6.55;;;;;;;2.42;74.68;101459.77;1768055;80;21199;-76
2021/03/01 09:42:03;;;;;;;8.40;6.35;;;;;;;2.53;74.33;101465.53;1779785;79;21197;-76
2021/03/01 09:44:33;;;;;;;9.68;6.92;;;;;;;2.67;74.15;101464.27;1782844;80;21465;-78
2021/03/01 09:47:00;;;;;;;8.93;5.80;;;;;;;2.77;73.55;101465.25;1781649;80;22804;-76
2021/03/01 09:49:30;;;;;;;8.73;5.80;;;;;;;2.83;73.27;101464.22;1782236;80;21172;-78
2021/03/01 09:51:58;;;;;;;7.72;5.33;;;;;;;2.94;73.01;101475.64;1780488;79;21438;-78
2021/03/01 09:54:26;;;;;;;6.97;4.33;;;;;;;3.04;72.69;101476.62;1779024;80;21464;-78
2021/03/01 09:56:56;;;;;;;8.98;5.25;;;;;;;3.12;71.63;101475.08;1776923;80;21161;-79
2021/03/01 09:59:39;;;;;;;9.40;6.08;;;;;;;3.14;71.04;101481.95;1778922;80;21589;-75
2021/03/01 10:02:20;;;;;;;7.70;5.55;;;;;;;3.12;70.83;101482.45;1776052;80;21183;-77
2021/03/01 10:04:49;;;;;;;6.08;5.33;;;;;;;3.09;70.35;101483.02;1773995;80;21632;-82
2021/03/01 10:07:27;;;;;;;6.60;5.17;;;;;;;3.04;69.88;101484.89;1776437;79;21156;-78
2021/03/01 10:09:56;;;;;;;6.15;4.75;;;;;;;2.97;69.52;101489.44;1778227;80;21162;-77
2021/03/01 10:12:26;;;;;;;6.50;4.92;;;;;;;3.01;69.77;101491.08;1778295;80;22793;-79
2021/03/01 10:14:59;;;;;;;8.28;5.50;;;;;;;3.08;69.62;101484.73;1778231;80;21411;-75
2021/03/01 10:17:28;;;;;;;6.15;4.80;;;;;;;3.05;69.20;101488.76;1778210;80;21018;-77
2021/03/01 10:20:11;;;;;;;7.25;4.97;;;;;;;3.06;69.32;101488.31;1781192;80;21341;-82
2021/03/01 10:23:03;;;;;;;6.03;4.15;;;;;;;3.07;69.18;101484.80;1744114;80;21181;-78
2021/03/01 10:25:41;;;;;;;4.85;3.65;;;;;;;3.08;69.09;101491.27;1757426;81;22084;-79
2021/03/01 10:28:29;;;;;;;6.47;4.30;;;;;;;3.15;68.90;101493.25;1758035;80;21157;-79
2021/03/01 10:31:05;;;;;;;6.12;4.20;;;;;;;3.12;69.03;101494.20;1781924;80;21208;-79
2021/03/01 10:33:53;;;;;;;6.40;4.50;;;;;;;3.13;68.91;101495.06;1787179;80;21212;-82
2021/03/01 10:36:27;;;;;;;5.45;4.00;;;;;;;3.02;68.87;101495.39;1779016;80;21022;-80
2021/03/01 10:39:16;;;;;;;6.22;4.08;;;;;;;3.00;69.15;101490.67;1779794;80;23021;-80
2021/03/01 10:41:53;;;;;;;6.67;4.47;;;;;;;3.07;69.39;101493.48;1771605;80;21191;-85
2021/03/01 10:44:32;;;;;;;6.58;4.42;;;;;;;3.08;69.21;101493.88;1776078;80;21095;-81
2021/03/01 10:47:22;;;;;;;5.70;4.28;;;;;;;3.00;69.15;101490.67;1774480;80;21110;-77
2021/03/01 10:49:55;;;;;;;7.30;5.00;;;;;;;2.93;69.34;101485.22;1806060;78;21158;-77
2021/03/01 10:52:24;;;;;;;6.17;4.58;;;;;;;2.84;69.31;101489.41;1781018;80;22141;-76
2021/03/01 10:54:57;;;;;;;5.30;3.67;;;;;;;2.82;69.36;101483.39;1800817;79;21557;-75
2021/03/01 10:57:25;;;;;;;5.80;3.72;;;;;;;2.85;69.21;101483.29;1785891;80;21573;-76
2021/03/01 10:59:54;;;;;;;5.60;4.08;;;;;;;2.88;68.88;101480.58;1781883;80;21189;-76
2021/03/01 11:02:22;;;;;;;5.83;3.90;;;;;;;2.92;68.60;101486.58;1788687;80;21161;-76
2021/03/01 11:04:50;;;;;;;5.83;4.12;;;;;;;2.93;68.43;101489.14;1787687;80;22649;-76
2021/03/01 11:07:18;;;;;;;5.92;4.08;;;;;;;2.97;68.38;101489.89;1788386;80;21148;-75
2021/03/01 11:09:45;;;;;;;5.78;4.28;;;;;;;3.01;68.27;101488.91;1788574;80;21145;-76
2021/03/01 11:12:13;;;;;;;5.42;3.90;;;;;;;3.04;68.31;101496.19;1786505;80;21180;-77
2021/03/01 11:14:41;;;;;;;6.22;4.47;;;;;;;3.05;68.15;101493.98;1772110;80;21173;-76
2021/03/01 11:17:11;;;;;;;6.85;4.55;;;;;;;3.05;68.17;101490.06;1759914;81;22117;-78
2021/03/01 11:19:40;;;;;;;6.33;4.78;;;;;;;3.05;67.89;101488.76;1790140;80;21173;-80
2021/03/01 11:22:07;;;;;;;6.60;4.60;;;;;;;3.00;67.76;101488.06;1791496;80;21160;-80
2021/03/01 11:24:35;;;;;;;6.42;4.87;;;;;;;2.99;67.94;101485.05;1791396;80;21529;-77
2021/03/01 11:27:04;;;;;;;6.60;5.05;;;;;;;3.04;67.90;101479.67;1791365;80;22153;-74
2021/03/01 11:29:33;;;;;;;6.10;4.40;;;;;;;3.08;67.97;101478.67;1791800;79;21824;-73
2021/03/01 11:32:01;;;;;;;11.35;6.10;;;;;;;3.11;67.93;101482.52;1791311;80;21168;-75
2021/03/01 11:34:30;;;;;;;10.38;6.67;;;;;;;3.15;68.01;101473.22;1791339;80;21168;-77
2021/03/01 11:36:57;;;;;;;8.08;5.97;;;;;;;3.21;67.54;101470.87;1791379;80;21164;-75
2021/03/01 11:39:25;;;;;;;7.22;5.15;;;;;;;3.21;67.56;101480.47;1791441;80;21113;-75
2021/03/01 11:41:53;;;;;;;7.17;4.58;;;;;;;3.25;67.60;101478.16;1791352;80;22059;-75
2021/03/01 11:44:22;;;;;;;5.67;4.33;;;;;;;3.28;67.33;101473.70;1791348;80;21149;-74